PER weather

Perth International Airport
Perth, Western Australia, Australia

Public forecast

Using degrees Celsius for public forecast. Weather courtesy of forecast.io.

METAR (pilot weather report)

Retrieved 2018/08/17 05:30 UTC (36 minutes ago):

YPPH 170530Z 20006KT 9999 SCT044 BKN056 17/05 Q1021 NOSIG

TAF (pilot weather forecast)

Retrieved 2018/08/17 06:00 UTC (6 minutes ago):

TAF YPPH 170435Z 1706/1812 19008KT 9999 BKN045 FM171200 10005KT CAVOK FM180100 05010KT CAVOK